sensor_id;sensor_type;location;lat;lon;timestamp;pressure;altitude;pressure_sealevel;temperature;humidity
60920;BME280;59039;52.108;19.942;2023-07-16T00:00:34;100284.42;;;22.92;54.28
60920;BME280;59039;52.108;19.942;2023-07-16T00:02:59;100280.64;;;22.89;54.35
60920;BME280;59039;52.108;19.942;2023-07-16T00:05:24;100280.62;;;22.86;54.52
60920;BME280;59039;52.108;19.942;2023-07-16T00:07:49;100284.65;;;22.84;54.61
60920;BME280;59039;52.108;19.942;2023-07-16T00:10:15;100282.68;;;22.82;54.83
60920;BME280;59039;52.108;19.942;2023-07-16T00:12:40;100276.10;;;22.81;54.77
60920;BME280;59039;52.108;19.942;2023-07-16T00:15:06;100278.16;;;22.79;54.83
60920;BME280;59039;52.108;19.942;2023-07-16T00:17:33;100278.53;;;22.78;54.89
60920;BME280;59039;52.108;19.942;2023-07-16T00:19:58;100275.48;;;22.76;55.00
60920;BME280;59039;52.108;19.942;2023-07-16T00:22:23;100276.81;;;22.73;54.96
60920;BME280;59039;52.108;19.942;2023-07-16T00:24:49;100272.83;;;22.69;55.11
60920;BME280;59039;52.108;19.942;2023-07-16T00:27:14;100273.45;;;22.65;55.25
60920;BME280;59039;52.108;19.942;2023-07-16T00:29:40;100273.59;;;22.62;55.33
60920;BME280;59039;52.108;19.942;2023-07-16T00:32:05;100273.17;;;22.59;55.36
60920;BME280;59039;52.108;19.942;2023-07-16T00:34:30;100274.70;;;22.56;55.49
60920;BME280;59039;52.108;19.942;2023-07-16T00:36:56;100275.28;;;22.53;55.73
60920;BME280;59039;52.108;19.942;2023-07-16T00:39:21;100266.84;;;22.49;55.82
60920;BME280;59039;52.108;19.942;2023-07-16T00:41:46;100264.86;;;22.48;55.84
60920;BME280;59039;52.108;19.942;2023-07-16T00:44:11;100258.33;;;22.46;55.97
60920;BME280;59039;52.108;19.942;2023-07-16T00:46:37;100259.29;;;22.45;56.07
60920;BME280;59039;52.108;19.942;2023-07-16T00:49:03;100257.56;;;22.44;56.14
60920;BME280;59039;52.108;19.942;2023-07-16T00:51:28;100259.86;;;22.43;56.10
60920;BME280;59039;52.108;19.942;2023-07-16T00:53:54;100257.55;;;22.42;56.19
60920;BME280;59039;52.108;19.942;2023-07-16T00:56:19;100259.89;;;22.40;56.46
60920;BME280;59039;52.108;19.942;2023-07-16T00:58:44;100256.70;;;22.37;56.44
60920;BME280;59039;52.108;19.942;2023-07-16T01:01:10;100262.48;;;22.34;56.49
60920;BME280;59039;52.108;19.942;2023-07-16T01:03:35;100256.61;;;22.31;56.65
60920;BME280;59039;52.108;19.942;2023-07-16T01:08:39;100246.14;;;22.27;56.85
60920;BME280;59039;52.108;19.942;2023-07-16T01:11:07;100240.80;;;22.26;56.98
60920;BME280;59039;52.108;19.942;2023-07-16T01:13:32;100239.88;;;22.24;56.91
60920;BME280;59039;52.108;19.942;2023-07-16T01:15:57;100233.52;;;22.23;57.15
60920;BME280;59039;52.108;19.942;2023-07-16T01:18:23;100231.91;;;22.22;57.02
60920;BME280;59039;52.108;19.942;2023-07-16T01:20:48;100230.09;;;22.21;57.11
60920;BME280;59039;52.108;19.942;2023-07-16T01:23:38;100229.05;;;22.18;57.26
60920;BME280;59039;52.108;19.942;2023-07-16T01:26:26;100222.56;;;22.13;57.50
60920;BME280;59039;52.108;19.942;2023-07-16T01:29:33;100224.73;;;22.10;57.56
60920;BME280;59039;52.108;19.942;2023-07-16T01:32:00;100224.75;;;22.06;57.75
60920;BME280;59039;52.108;19.942;2023-07-16T01:34:28;100223.15;;;22.02;57.79
60920;BME280;59039;52.108;19.942;2023-07-16T01:36:54;100219.61;;;22.00;57.69
60920;BME280;59039;52.108;19.942;2023-07-16T01:39:20;100216.56;;;21.98;57.91
60920;BME280;59039;52.108;19.942;2023-07-16T01:41:45;100216.20;;;21.97;57.97
60920;BME280;59039;52.108;19.942;2023-07-16T01:44:10;100212.34;;;21.96;57.99
60920;BME280;59039;52.108;19.942;2023-07-16T01:46:36;100212.41;;;21.94;58.13
60920;BME280;59039;52.108;19.942;2023-07-16T01:49:01;100205.23;;;21.93;58.39
60920;BME280;59039;52.108;19.942;2023-07-16T01:51:26;100203.44;;;21.90;58.34
60920;BME280;59039;52.108;19.942;2023-07-16T01:53:51;100206.58;;;21.87;58.50
60920;BME280;59039;52.108;19.942;2023-07-16T01:56:17;100204.66;;;21.86;58.49
60920;BME280;59039;52.108;19.942;2023-07-16T01:58:42;100204.73;;;21.84;58.55
60920;BME280;59039;52.108;19.942;2023-07-16T02:01:07;100197.88;;;21.80;58.72
60920;BME280;59039;52.108;19.942;2023-07-16T02:03:32;100199.69;;;21.78;58.88
60920;BME280;59039;52.108;19.942;2023-07-16T02:05:58;100205.16;;;21.76;59.04
60920;BME280;59039;52.108;19.942;2023-07-16T02:08:23;100204.30;;;21.75;59.12
60920;BME280;59039;52.108;19.942;2023-07-16T02:10:48;100206.37;;;21.74;59.19
60920;BME280;59039;52.108;19.942;2023-07-16T02:13:13;100205.38;;;21.74;59.25
60920;BME280;59039;52.108;19.942;2023-07-16T02:15:39;100208.72;;;21.75;59.25
60920;BME280;59039;52.108;19.942;2023-07-16T02:18:05;100208.38;;;21.75;59.34
60920;BME280;59039;52.108;19.942;2023-07-16T02:20:31;100211.70;;;21.74;59.39
60920;BME280;59039;52.108;19.942;2023-07-16T02:22:56;100210.59;;;21.74;59.53
60920;BME280;59039;52.108;19.942;2023-07-16T02:25:21;100208.45;;;21.75;59.54
60920;BME280;59039;52.108;19.942;2023-07-16T02:27:47;100210.89;;;21.75;59.47
60920;BME280;59039;52.108;19.942;2023-07-16T02:30:14;100209.49;;;21.75;59.58
60920;BME280;59039;52.108;19.942;2023-07-16T02:32:39;100209.48;;;21.75;59.63
60920;BME280;59039;52.108;19.942;2023-07-16T02:35:04;100206.67;;;21.75;59.65
60920;BME280;59039;52.108;19.942;2023-07-16T02:37:30;100209.82;;;21.75;59.75
60920;BME280;59039;52.108;19.942;2023-07-16T02:39:55;100204.85;;;21.75;59.74
60920;BME280;59039;52.108;19.942;2023-07-16T02:42:20;100205.84;;;21.74;59.77
60920;BME280;59039;52.108;19.942;2023-07-16T02:44:45;100206.10;;;21.74;59.83
60920;BME280;59039;52.108;19.942;2023-07-16T02:47:11;100204.65;;;21.74;59.99
60920;BME280;59039;52.108;19.942;2023-07-16T02:49:37;100209.51;;;21.73;59.96
60920;BME280;59039;52.108;19.942;2023-07-16T02:52:02;100206.62;;;21.73;60.23
60920;BME280;59039;52.108;19.942;2023-07-16T02:54:28;100210.27;;;21.73;60.21
60920;BME280;59039;52.108;19.942;2023-07-16T02:56:53;100207.84;;;21.73;60.05
60920;BME280;59039;52.108;19.942;2023-07-16T02:59:18;100206.90;;;21.73;60.34
60920;BME280;59039;52.108;19.942;2023-07-16T03:01:43;100213.33;;;21.74;60.33
60920;BME280;59039;52.108;19.942;2023-07-16T03:04:09;100212.30;;;21.74;60.31
60920;BME280;59039;52.108;19.942;2023-07-16T03:06:34;100209.38;;;21.74;60.47
60920;BME280;59039;52.108;19.942;2023-07-16T03:08:59;100211.41;;;21.74;60.45
60920;BME280;59039;52.108;19.942;2023-07-16T03:11:24;100214.10;;;21.74;60.49
60920;BME280;59039;52.108;19.942;2023-07-16T03:13:50;100219.00;;;21.73;60.49
60920;BME280;59039;52.108;19.942;2023-07-16T03:16:15;100220.33;;;21.73;60.69
60920;BME280;59039;52.108;19.942;2023-07-16T03:18:40;100222.11;;;21.73;60.73
60920;BME280;59039;52.108;19.942;2023-07-16T03:21:05;100221.33;;;21.73;60.74
60920;BME280;59039;52.108;19.942;2023-07-16T03:23:31;100218.70;;;21.74;60.88
60920;BME280;59039;52.108;19.942;2023-07-16T03:25:56;100224.55;;;21.74;60.92
60920;BME280;59039;52.108;19.942;2023-07-16T03:28:21;100222.78;;;21.73;61.00
60920;BME280;59039;52.108;19.942;2023-07-16T03:30:48;100219.53;;;21.74;61.01
60920;BME280;59039;52.108;19.942;2023-07-16T03:33:14;100221.55;;;21.75;61.18
60920;BME280;59039;52.108;19.942;2023-07-16T03:35:39;100218.66;;;21.76;61.18
60920;BME280;59039;52.108;19.942;2023-07-16T03:38:06;100221.66;;;21.77;61.18
60920;BME280;59039;52.108;19.942;2023-07-16T03:40:32;100224.40;;;21.80;61.33
60920;BME280;59039;52.108;19.942;2023-07-16T03:42:57;100223.35;;;21.82;61.33
60920;BME280;59039;52.108;19.942;2023-07-16T03:45:23;100219.48;;;21.84;61.19
60920;BME280;59039;52.108;19.942;2023-07-16T03:47:49;100215.33;;;21.86;61.37
60920;BME280;59039;52.108;19.942;2023-07-16T03:50:14;100220.38;;;21.88;61.55
60920;BME280;59039;52.108;19.942;2023-07-16T03:52:39;100220.59;;;21.92;61.59
60920;BME280;59039;52.108;19.942;2023-07-16T03:55:05;100217.38;;;21.95;61.65
60920;BME280;59039;52.108;19.942;2023-07-16T03:57:30;100218.33;;;22.00;61.82
60920;BME280;59039;52.108;19.942;2023-07-16T03:59:55;100215.91;;;22.05;61.84
60920;BME280;59039;52.108;19.942;2023-07-16T04:02:20;100220.88;;;22.12;62.03
60920;BME280;59039;52.108;19.942;2023-07-16T04:04:46;100222.29;;;22.21;62.06
60920;BME280;59039;52.108;19.942;2023-07-16T04:07:11;100227.43;;;22.31;62.24
60920;BME280;59039;52.108;19.942;2023-07-16T04:09:39;100226.45;;;22.42;62.19
60920;BME280;59039;52.108;19.942;2023-07-16T04:12:06;100226.49;;;22.55;62.20
60920;BME280;59039;52.108;19.942;2023-07-16T04:14:32;100227.55;;;22.68;62.45
60920;BME280;59039;52.108;19.942;2023-07-16T04:16:57;100227.52;;;22.84;62.23
60920;BME280;59039;52.108;19.942;2023-07-16T04:19:22;100231.14;;;23.00;61.89
60920;BME280;59039;52.108;19.942;2023-07-16T04:21:47;100226.68;;;23.15;61.77
60920;BME280;59039;52.108;19.942;2023-07-16T04:24:13;100226.52;;;23.30;61.39
60920;BME280;59039;52.108;19.942;2023-07-16T04:26:38;100228.17;;;23.46;61.16
60920;BME280;59039;52.108;19.942;2023-07-16T04:29:03;100225.16;;;23.61;60.93
60920;BME280;59039;52.108;19.942;2023-07-16T04:31:29;100222.20;;;23.77;60.30
60920;BME280;59039;52.108;19.942;2023-07-16T04:33:54;100218.14;;;23.93;59.97
60920;BME280;59039;52.108;19.942;2023-07-16T04:36:19;100216.13;;;24.08;59.82
60920;BME280;59039;52.108;19.942;2023-07-16T04:38:44;100220.05;;;24.25;59.52
60920;BME280;59039;52.108;19.942;2023-07-16T04:41:10;100219.98;;;24.40;58.97
60920;BME280;59039;52.108;19.942;2023-07-16T04:43:36;100222.67;;;24.56;58.82
60920;BME280;59039;52.108;19.942;2023-07-16T04:46:01;100218.16;;;24.70;58.50
60920;BME280;59039;52.108;19.942;2023-07-16T04:48:26;100222.17;;;24.83;58.07
60920;BME280;59039;52.108;19.942;2023-07-16T04:50:51;100226.23;;;24.95;58.26
60920;BME280;59039;52.108;19.942;2023-07-16T04:53:17;100228.82;;;25.07;58.22
60920;BME280;59039;52.108;19.942;2023-07-16T04:55:42;100235.50;;;25.22;58.09
60920;BME280;59039;52.108;19.942;2023-07-16T04:58:07;100235.14;;;25.35;58.14
60920;BME280;59039;52.108;19.942;2023-07-16T05:00:32;100231.48;;;25.49;57.72
60920;BME280;59039;52.108;19.942;2023-07-16T05:02:58;100225.95;;;25.64;57.70
60920;BME280;59039;52.108;19.942;2023-07-16T05:05:23;100221.83;;;25.79;56.89
60920;BME280;59039;52.108;19.942;2023-07-16T05:07:48;100222.04;;;25.93;56.61
60920;BME280;59039;52.108;19.942;2023-07-16T05:10:13;100219.02;;;26.09;56.18
60920;BME280;59039;52.108;19.942;2023-07-16T05:12:39;100218.16;;;26.22;55.62
60920;BME280;59039;52.108;19.942;2023-07-16T05:15:04;100219.80;;;26.38;55.50
60920;BME280;59039;52.108;19.942;2023-07-16T05:17:30;100215.71;;;26.53;54.98
60920;BME280;59039;52.108;19.942;2023-07-16T05:19:55;100218.13;;;26.66;54.68
60920;BME280;59039;52.108;19.942;2023-07-16T05:22:20;100217.90;;;26.81;54.52
60920;BME280;59039;52.108;19.942;2023-07-16T05:24:45;100225.20;;;26.94;54.73
60920;BME280;59039;52.108;19.942;2023-07-16T05:27:10;100227.30;;;27.08;54.53
60920;BME280;59039;52.108;19.942;2023-07-16T05:29:36;100232.59;;;27.20;54.36
60920;BME280;59039;52.108;19.942;2023-07-16T05:32:01;100232.89;;;27.33;53.81
60920;BME280;59039;52.108;19.942;2023-07-16T05:34:27;100235.64;;;27.45;54.01
60920;BME280;59039;52.108;19.942;2023-07-16T05:36:55;100234.13;;;27.57;53.67
60920;BME280;59039;52.108;19.942;2023-07-16T05:39:21;100235.40;;;27.70;53.33
60920;BME280;59039;52.108;19.942;2023-07-16T05:41:46;100239.81;;;27.82;52.87
60920;BME280;59039;52.108;19.942;2023-07-16T05:44:11;100248.53;;;27.94;52.79
60920;BME280;59039;52.108;19.942;2023-07-16T05:46:37;100251.37;;;28.06;52.51
60920;BME280;59039;52.108;19.942;2023-07-16T05:49:02;100257.83;;;28.21;52.15
60920;BME280;59039;52.108;19.942;2023-07-16T05:51:27;100258.07;;;28.34;51.88
60920;BME280;59039;52.108;19.942;2023-07-16T05:53:52;100256.77;;;28.47;51.59
60920;BME280;59039;52.108;19.942;2023-07-16T05:56:18;100259.76;;;28.60;50.99
60920;BME280;59039;52.108;19.942;2023-07-16T05:58:43;100262.11;;;28.71;50.97
60920;BME280;59039;52.108;19.942;2023-07-16T06:01:08;100268.20;;;28.84;50.96
60920;BME280;59039;52.108;19.942;2023-07-16T06:03:34;100274.19;;;28.97;50.91
60920;BME280;59039;52.108;19.942;2023-07-16T06:05:59;100279.84;;;29.10;50.29
60920;BME280;59039;52.108;19.942;2023-07-16T06:08:24;100282.64;;;29.22;49.43
60920;BME280;59039;52.108;19.942;2023-07-16T06:10:50;100280.88;;;29.32;49.23
60920;BME280;59039;52.108;19.942;2023-07-16T06:13:15;100289.20;;;29.47;48.44
60920;BME280;59039;52.108;19.942;2023-07-16T06:15:40;100289.14;;;29.61;48.43
60920;BME280;59039;52.108;19.942;2023-07-16T06:18:06;100289.23;;;29.78;48.10
60920;BME280;59039;52.108;19.942;2023-07-16T06:20:31;100287.88;;;29.92;46.92
60920;BME280;59039;52.108;19.942;2023-07-16T06:22:56;100282.20;;;30.07;46.46
60920;BME280;59039;52.108;19.942;2023-07-16T06:25:21;100277.20;;;30.19;46.14
60920;BME280;59039;52.108;19.942;2023-07-16T06:27:47;100274.54;;;30.31;45.68
60920;BME280;59039;52.108;19.942;2023-07-16T06:30:12;100274.67;;;30.43;45.38
60920;BME280;59039;52.108;19.942;2023-07-16T06:32:38;100277.97;;;30.54;45.09
60920;BME280;59039;52.108;19.942;2023-07-16T06:35:03;100286.19;;;30.64;44.83
60920;BME280;59039;52.108;19.942;2023-07-16T06:37:28;100288.92;;;30.75;44.55
60920;BME280;59039;52.108;19.942;2023-07-16T06:39:54;100284.25;;;30.86;44.64
60920;BME280;59039;52.108;19.942;2023-07-16T06:42:19;100279.73;;;30.97;44.38
60920;BME280;59039;52.108;19.942;2023-07-16T06:44:44;100281.42;;;31.08;44.02
60920;BME280;59039;52.108;19.942;2023-07-16T06:47:09;100283.71;;;31.15;43.42
60920;BME280;59039;52.108;19.942;2023-07-16T06:49:35;100279.70;;;31.22;43.50
60920;BME280;59039;52.108;19.942;2023-07-16T06:52:00;100275.05;;;31.28;43.07
60920;BME280;59039;52.108;19.942;2023-07-16T06:54:26;100273.86;;;31.33;42.75
60920;BME280;59039;52.108;19.942;2023-07-16T06:56:52;100267.91;;;31.38;42.57
60920;BME280;59039;52.108;19.942;2023-07-16T06:59:17;100263.11;;;31.43;42.18
60920;BME280;59039;52.108;19.942;2023-07-16T07:01:42;100258.63;;;31.48;42.16
60920;BME280;59039;52.108;19.942;2023-07-16T07:04:07;100258.45;;;31.53;42.33
60920;BME280;59039;52.108;19.942;2023-07-16T07:06:32;100252.92;;;31.59;42.08
60920;BME280;59039;52.108;19.942;2023-07-16T07:08:58;100250.91;;;31.64;42.09
60920;BME280;59039;52.108;19.942;2023-07-16T07:11:23;100241.06;;;31.69;42.01
60920;BME280;59039;52.108;19.942;2023-07-16T07:13:48;100236.95;;;31.75;42.04
60920;BME280;59039;52.108;19.942;2023-07-16T07:16:13;100232.59;;;31.82;41.85
60920;BME280;59039;52.108;19.942;2023-07-16T07:18:38;100236.69;;;31.90;41.44
60920;BME280;59039;52.108;19.942;2023-07-16T07:21:04;100241.40;;;31.96;41.85
60920;BME280;59039;52.108;19.942;2023-07-16T07:23:29;100237.02;;;32.04;41.88
60920;BME280;59039;52.108;19.942;2023-07-16T07:25:54;100239.33;;;32.13;41.59
60920;BME280;59039;52.108;19.942;2023-07-16T07:28:20;100246.65;;;32.20;41.41
60920;BME280;59039;52.108;19.942;2023-07-16T07:30:45;100246.09;;;32.27;41.36
60920;BME280;59039;52.108;19.942;2023-07-16T07:33:11;100245.58;;;32.35;41.54
60920;BME280;59039;52.108;19.942;2023-07-16T07:35:36;100245.46;;;32.42;41.40
60920;BME280;59039;52.108;19.942;2023-07-16T07:38:01;100246.76;;;32.50;41.17
60920;BME280;59039;52.108;19.942;2023-07-16T07:40:27;100243.84;;;32.58;41.37
60920;BME280;59039;52.108;19.942;2023-07-16T07:42:52;100246.94;;;32.68;40.58
60920;BME280;59039;52.108;19.942;2023-07-16T07:45:17;100252.48;;;32.79;40.29
60920;BME280;59039;52.108;19.942;2023-07-16T07:47:43;100257.64;;;32.90;40.41
60920;BME280;59039;52.108;19.942;2023-07-16T07:50:08;100251.40;;;33.03;40.37
60920;BME280;59039;52.108;19.942;2023-07-16T07:52:34;100248.88;;;33.15;40.02
60920;BME280;59039;52.108;19.942;2023-07-16T07:54:59;100251.09;;;33.27;39.80
60920;BME280;59039;52.108;19.942;2023-07-16T07:57:24;100252.41;;;33.39;39.84
60920;BME280;59039;52.108;19.942;2023-07-16T07:59:49;100253.69;;;33.52;39.78
60920;BME280;59039;52.108;19.942;2023-07-16T08:02:14;100259.64;;;33.63;39.17
60920;BME280;59039;52.108;19.942;2023-07-16T08:04:40;100261.66;;;33.75;39.26
60920;BME280;59039;52.108;19.942;2023-07-16T08:07:05;100263.20;;;33.86;38.98
60920;BME280;59039;52.108;19.942;2023-07-16T08:09:30;100268.75;;;33.99;39.12
60920;BME280;59039;52.108;19.942;2023-07-16T08:11:55;100264.81;;;34.12;38.67
60920;BME280;59039;52.108;19.942;2023-07-16T08:14:21;100263.14;;;34.24;38.46
60920;BME280;59039;52.108;19.942;2023-07-16T08:16:46;100263.34;;;34.37;37.91
60920;BME280;59039;52.108;19.942;2023-07-16T08:19:11;100262.96;;;34.48;37.76
60920;BME280;59039;52.108;19.942;2023-07-16T08:21:37;100260.86;;;34.55;37.57
60920;BME280;59039;52.108;19.942;2023-07-16T08:24:02;100255.35;;;34.63;37.50
60920;BME280;59039;52.108;19.942;2023-07-16T08:26:27;100254.48;;;34.70;37.13
60920;BME280;59039;52.108;19.942;2023-07-16T08:28:52;100256.56;;;34.80;37.14
60920;BME280;59039;52.108;19.942;2023-07-16T08:31:18;100257.88;;;34.81;37.19
60920;BME280;59039;52.108;19.942;2023-07-16T08:33:43;100259.05;;;34.75;37.34
60920;BME280;59039;52.108;19.942;2023-07-16T08:36:09;100267.08;;;34.65;37.35
60920;BME280;59039;52.108;19.942;2023-07-16T08:38:34;100268.34;;;34.55;37.25
60920;BME280;59039;52.108;19.942;2023-07-16T08:41:00;100266.41;;;34.43;37.38
60920;BME280;59039;52.108;19.942;2023-07-16T08:43:25;100265.11;;;34.31;37.62
60920;BME280;59039;52.108;19.942;2023-07-16T08:45:51;100270.13;;;34.19;37.49
60920;BME280;59039;52.108;19.942;2023-07-16T08:48:17;100272.34;;;34.05;37.93
60920;BME280;59039;52.108;19.942;2023-07-16T08:50:46;100273.48;;;33.91;37.88
60920;BME280;59039;52.108;19.942;2023-07-16T08:53:12;100275.84;;;33.78;38.52
60920;BME280;59039;52.108;19.942;2023-07-16T08:55:37;100283.11;;;33.64;38.53
60920;BME280;59039;52.108;19.942;2023-07-16T08:58:04;100287.56;;;33.53;38.68
60920;BME280;59039;52.108;19.942;2023-07-16T09:00:29;100284.05;;;33.41;39.06
60920;BME280;59039;52.108;19.942;2023-07-16T09:02:55;100285.08;;;33.28;39.20
60920;BME280;59039;52.108;19.942;2023-07-16T09:05:21;100283.52;;;33.18;39.39
60920;BME280;59039;52.108;19.942;2023-07-16T09:07:47;100286.80;;;33.08;39.65
60920;BME280;59039;52.108;19.942;2023-07-16T09:10:12;100294.75;;;32.99;39.69
60920;BME280;59039;52.108;19.942;2023-07-16T09:12:42;100286.97;;;32.90;39.98
60920;BME280;59039;52.108;19.942;2023-07-16T09:15:08;100288.48;;;32.80;40.06
60920;BME280;59039;52.108;19.942;2023-07-16T09:17:34;100287.64;;;32.71;40.39
60920;BME280;59039;52.108;19.942;2023-07-16T09:20:02;100288.88;;;32.60;40.50
60920;BME280;59039;52.108;19.942;2023-07-16T09:22:27;100290.02;;;32.50;40.71
60920;BME280;59039;52.108;19.942;2023-07-16T09:24:53;100295.65;;;32.41;40.84
60920;BME280;59039;52.108;19.942;2023-07-16T09:27:18;100303.14;;;32.33;41.11
60920;BME280;59039;52.108;19.942;2023-07-16T09:29:43;100301.90;;;32.25;41.21
60920;BME280;59039;52.108;19.942;2023-07-16T09:32:09;100302.77;;;32.19;41.27
60920;BME280;59039;52.108;19.942;2023-07-16T09:34:34;100305.27;;;32.14;41.28
60920;BME280;59039;52.108;19.942;2023-07-16T09:37:00;100307.07;;;32.06;41.17
60920;BME280;59039;52.108;19.942;2023-07-16T09:39:26;100312.92;;;31.99;41.04
60920;BME280;59039;52.108;19.942;2023-07-16T09:41:52;100315.73;;;31.94;40.90
60920;BME280;59039;52.108;19.942;2023-07-16T09:44:18;100318.33;;;31.88;40.64
60920;BME280;59039;52.108;19.942;2023-07-16T09:46:45;100317.43;;;31.83;40.81
60920;BME280;59039;52.108;19.942;2023-07-16T09:49:11;100314.46;;;31.78;40.63
60920;BME280;59039;52.108;19.942;2023-07-16T09:51:37;100317.77;;;31.74;40.76
60920;BME280;59039;52.108;19.942;2023-07-16T09:54:04;100318.73;;;31.68;40.68
60920;BME280;59039;52.108;19.942;2023-07-16T09:56:35;100318.13;;;31.62;40.73
60920;BME280;59039;52.108;19.942;2023-07-16T09:59:02;100321.05;;;31.57;40.54
60920;BME280;59039;52.108;19.942;2023-07-16T10:01:29;100323.23;;;31.52;40.45
60920;BME280;59039;52.108;19.942;2023-07-16T10:03:54;100322.45;;;31.46;40.05
60920;BME280;59039;52.108;19.942;2023-07-16T10:06:21;100319.18;;;31.43;39.96
60920;BME280;59039;52.108;19.942;2023-07-16T10:08:49;100318.86;;;31.40;40.01
60920;BME280;59039;52.108;19.942;2023-07-16T10:11:18;100318.08;;;31.37;39.88
60920;BME280;59039;52.108;19.942;2023-07-16T10:13:49;100316.36;;;31.35;40.32
60920;BME280;59039;52.108;19.942;2023-07-16T10:16:21;100314.53;;;31.33;40.04
60920;BME280;59039;52.108;19.942;2023-07-16T10:18:53;100310.23;;;31.30;40.08
60920;BME280;59039;52.108;19.942;2023-07-16T10:21:22;100301.16;;;31.27;40.15
60920;BME280;59039;52.108;19.942;2023-07-16T10:23:56;100308.41;;;31.21;40.10
60920;BME280;59039;52.108;19.942;2023-07-16T10:26:26;100314.79;;;31.18;40.29
60920;BME280;59039;52.108;19.942;2023-07-16T10:28:52;100314.02;;;31.16;40.25
60920;BME280;59039;52.108;19.942;2023-07-16T10:31:20;100311.61;;;31.15;40.42
60920;BME280;59039;52.108;19.942;2023-07-16T10:34:02;100319.03;;;31.13;40.34
60920;BME280;59039;52.108;19.942;2023-07-16T10:36:27;100323.70;;;31.11;40.13
60920;BME280;59039;52.108;19.942;2023-07-16T10:38:52;100320.63;;;31.11;39.95
60920;BME280;59039;52.108;19.942;2023-07-16T10:41:18;100326.76;;;31.10;39.73
60920;BME280;59039;52.108;19.942;2023-07-16T10:43:43;100326.15;;;31.10;39.66
60920;BME280;59039;52.108;19.942;2023-07-16T10:46:09;100327.73;;;31.08;39.62
60920;BME280;59039;52.108;19.942;2023-07-16T10:48:34;100320.22;;;31.07;39.54
60920;BME280;59039;52.108;19.942;2023-07-16T10:50:59;100323.59;;;31.07;39.29
60920;BME280;59039;52.108;19.942;2023-07-16T10:53:25;100318.59;;;31.07;39.34
60920;BME280;59039;52.108;19.942;2023-07-16T10:55:50;100315.44;;;31.08;39.24
60920;BME280;59039;52.108;19.942;2023-07-16T10:58:15;100325.14;;;31.09;39.57
60920;BME280;59039;52.108;19.942;2023-07-16T11:00:40;100323.73;;;31.09;39.30
60920;BME280;59039;52.108;19.942;2023-07-16T11:03:06;100340.24;;;31.09;39.07
60920;BME280;59039;52.108;19.942;2023-07-16T11:05:31;100336.98;;;31.10;39.36
60920;BME280;59039;52.108;19.942;2023-07-16T11:07:57;100332.66;;;31.10;39.01
60920;BME280;59039;52.108;19.942;2023-07-16T11:10:23;100340.41;;;31.09;38.83
60920;BME280;59039;52.108;19.942;2023-07-16T11:12:52;100335.36;;;31.09;39.06
60920;BME280;59039;52.108;19.942;2023-07-16T11:15:18;100328.69;;;31.09;39.05
60920;BME280;59039;52.108;19.942;2023-07-16T11:17:48;100329.46;;;31.09;39.32
60920;BME280;59039;52.108;19.942;2023-07-16T11:20:13;100331.95;;;31.08;39.21
60920;BME280;59039;52.108;19.942;2023-07-16T11:22:39;100338.70;;;31.07;39.50
60920;BME280;59039;52.108;19.942;2023-07-16T11:25:11;100334.27;;;31.05;39.32
60920;BME280;59039;52.108;19.942;2023-07-16T11:27:36;100335.97;;;31.03;39.48
60920;BME280;59039;52.108;19.942;2023-07-16T11:30:01;100335.75;;;31.02;39.36
60920;BME280;59039;52.108;19.942;2023-07-16T11:32:41;100334.50;;;31.03;39.37
60920;BME280;59039;52.108;19.942;2023-07-16T11:35:08;100336.02;;;31.04;39.28
60920;BME280;59039;52.108;19.942;2023-07-16T11:37:36;100340.17;;;31.04;39.16
60920;BME280;59039;52.108;19.942;2023-07-16T11:40:11;100340.12;;;31.03;39.16
60920;BME280;59039;52.108;19.942;2023-07-16T11:42:40;100336.65;;;31.03;39.01
60920;BME280;59039;52.108;19.942;2023-07-16T11:45:24;100338.11;;;31.02;39.32
60920;BME280;59039;52.108;19.942;2023-07-16T11:47:50;100332.16;;;31.01;39.09
60920;BME280;59039;52.108;19.942;2023-07-16T11:50:15;100331.92;;;31.03;39.22
60920;BME280;59039;52.108;19.942;2023-07-16T11:52:41;100330.46;;;31.04;39.11
60920;BME280;59039;52.108;19.942;2023-07-16T11:55:06;100330.63;;;31.05;39.26
60920;BME280;59039;52.108;19.942;2023-07-16T11:57:32;100335.60;;;31.07;39.15
60920;BME280;59039;52.108;19.942;2023-07-16T11:59:57;100338.45;;;31.09;39.32
60920;BME280;59039;52.108;19.942;2023-07-16T12:02:23;100341.01;;;31.11;39.27
60920;BME280;59039;52.108;19.942;2023-07-16T12:04:48;100340.61;;;31.12;39.32
60920;BME280;59039;52.108;19.942;2023-07-16T12:07:14;100341.45;;;31.13;39.04
60920;BME280;59039;52.108;19.942;2023-07-16T12:09:39;100338.30;;;31.12;38.99
60920;BME280;59039;52.108;19.942;2023-07-16T12:12:05;100341.45;;;31.13;39.10
60920;BME280;59039;52.108;19.942;2023-07-16T12:14:31;100339.59;;;31.12;38.90
60920;BME280;59039;52.108;19.942;2023-07-16T12:16:56;100329.77;;;31.12;38.61
60920;BME280;59039;52.108;19.942;2023-07-16T12:19:22;100336.63;;;31.11;38.63
60920;BME280;59039;52.108;19.942;2023-07-16T12:21:47;100339.73;;;31.11;38.72
60920;BME280;59039;52.108;19.942;2023-07-16T12:24:12;100332.38;;;31.10;38.91
60920;BME280;59039;52.108;19.942;2023-07-16T12:26:37;100333.05;;;31.10;39.09
60920;BME280;59039;52.108;19.942;2023-07-16T12:29:03;100333.45;;;31.10;39.20
60920;BME280;59039;52.108;19.942;2023-07-16T12:31:31;100334.69;;;31.09;39.11
60920;BME280;59039;52.108;19.942;2023-07-16T12:33:57;100331.22;;;31.07;39.05
60920;BME280;59039;52.108;19.942;2023-07-16T12:36:23;100331.21;;;31.08;39.08